Time;durP1;ratioP1;P1;durP2;ratioP2;P2;SDS_P1;SDS_P2;PMS_P1;PMS_P2;Temp;Humidity;BMP_temperature;BMP_pressure;BME280_temperature;BME280_humidity;BME280_pressure;Samples;Min_cycle;Max_cycle;Signal;HPM_P1;HPM_P2
2020/12/08 00:01:36;;;;;;;15.10;11.27;;;7.50;66.60;;;;;;5035142;28;20452;-80
2020/12/08 00:04:04;;;;;;;15.83;12.00;;;7.50;66.70;;;;;;5035471;28;20454;-81
2020/12/08 00:06:30;;;;;;;13.43;10.97;;;7.50;66.70;;;;;;5029710;28;20959;-81
2020/12/08 00:08:57;;;;;;;17.07;11.50;;;7.50;66.50;;;;;;5023144;28;21576;-83
2020/12/08 00:11:24;;;;;;;13.13;10.50;;;7.50;66.40;;;;;;5027306;28;20465;-81
2020/12/08 00:13:50;;;;;;;13.10;10.23;;;7.50;66.30;;;;;;5035304;28;20463;-79
2020/12/08 00:16:18;;;;;;;14.77;12.40;;;7.50;66.30;;;;;;5032165;28;20451;-81
2020/12/08 00:18:44;;;;;;;12.73;9.73;;;7.50;66.10;;;;;;5022664;28;20461;-79
2020/12/08 00:21:11;;;;;;;14.13;11.83;;;7.50;66.00;;;;;;5024739;28;20461;-80
2020/12/08 00:23:37;;;;;;;16.23;11.93;;;7.50;66.10;;;;;;5025989;28;20456;-79
2020/12/08 00:26:04;;;;;;;14.93;12.47;;;7.50;66.10;;;;;;5015711;28;20460;-78
2020/12/08 00:28:32;;;;;;;15.00;11.10;;;7.50;66.30;;;;;;5034106;28;20493;-79
2020/12/08 00:30:58;;;;;;;13.33;10.80;;;7.50;66.30;;;;;;5035070;28;20457;-79
2020/12/08 00:33:25;;;;;;;12.10;10.57;;;7.50;66.20;;;;;;5029804;28;20468;-79
2020/12/08 00:35:53;;;;;;;21.03;13.30;;;7.50;66.10;;;;;;5024175;28;20458;-79
2020/12/08 00:38:20;;;;;;;15.40;11.57;;;7.50;66.00;;;;;;5027008;28;20493;-79
2020/12/08 00:40:46;;;;;;;16.97;13.40;;;7.50;66.10;;;;;;5034551;28;20822;-79
2020/12/08 00:43:13;;;;;;;17.33;12.67;;;7.50;66.20;;;;;;5029457;28;20451;-79
2020/12/08 00:45:39;;;;;;;15.67;11.33;;;7.50;66.10;;;;;;5029744;28;20451;-79
2020/12/08 00:48:06;;;;;;;15.23;12.10;;;7.50;66.00;;;;;;5028747;28;20497;-80
2020/12/08 00:50:34;;;;;;;17.67;13.30;;;7.50;65.80;;;;;;5033873;28;20494;-80
2020/12/08 00:53:01;;;;;;;15.10;12.30;;;7.60;65.90;;;;;;5034055;28;20803;-81
2020/12/08 00:55:28;;;;;;;18.03;13.00;;;7.60;65.70;;;;;;5027509;28;20895;-81
2020/12/08 00:57:55;;;;;;;17.60;12.00;;;7.60;65.50;;;;;;5023027;28;20464;-81
2020/12/08 01:00:21;;;;;;;15.63;12.47;;;7.60;65.50;;;;;;5029219;28;21044;-80
2020/12/08 01:02:48;;;;;;;18.37;13.60;;;7.70;65.80;;;;;;5034045;28;20461;-82
2020/12/08 01:05:17;;;;;;;17.07;13.23;;;7.70;65.90;;;;;;5029761;28;20463;-80
2020/12/08 01:07:44;;;;;;;15.83;12.47;;;7.70;65.80;;;;;;5027447;28;20555;-81
2020/12/08 01:10:11;;;;;;;17.33;12.10;;;7.60;65.80;;;;;;5034604;28;20447;-81
2020/12/08 01:12:38;;;;;;;14.53;11.80;;;7.70;65.80;;;;;;5032248;28;20979;-81
2020/12/08 01:15:05;;;;;;;15.47;12.80;;;7.70;65.70;;;;;;5033049;28;20885;-80
2020/12/08 01:17:33;;;;;;;17.10;13.63;;;7.70;65.80;;;;;;5026339;28;20463;-80
2020/12/08 01:19:59;;;;;;;16.60;12.10;;;7.70;65.90;;;;;;5034264;28;20464;-80
2020/12/08 01:22:26;;;;;;;19.80;13.97;;;7.70;65.70;;;;;;5028447;28;20461;-80
2020/12/08 01:24:53;;;;;;;18.00;13.23;;;7.70;65.60;;;;;;5016653;28;20460;-80
2020/12/08 01:27:20;;;;;;;14.90;12.70;;;7.70;65.40;;;;;;5025738;28;20451;-80
2020/12/08 01:29:46;;;;;;;18.20;13.17;;;7.70;65.40;;;;;;5025493;28;20456;-81
2020/12/08 01:32:13;;;;;;;18.20;13.20;;;7.70;65.50;;;;;;5034169;28;20494;-79
2020/12/08 01:34:40;;;;;;;16.60;12.80;;;7.70;65.20;;;;;;5033048;28;20478;-78
2020/12/08 01:37:07;;;;;;;16.40;13.83;;;7.70;65.20;;;;;;5029988;28;20546;-81
2020/12/08 01:39:34;;;;;;;17.27;12.40;;;7.70;65.30;;;;;;5032707;28;20451;-81
2020/12/08 01:42:01;;;;;;;14.90;11.47;;;7.60;64.80;;;;;;5033485;28;20470;-82
2020/12/08 01:44:28;;;;;;;16.30;13.87;;;7.60;64.30;;;;;;5033477;28;20457;-81
2020/12/08 01:46:54;;;;;;;17.30;12.87;;;7.50;64.60;;;;;;5033704;28;20852;-78
2020/12/08 01:49:21;;;;;;;16.23;12.53;;;7.40;64.20;;;;;;5022647;28;20508;-81
2020/12/08 01:51:47;;;;;;;17.27;12.57;;;7.40;64.30;;;;;;5024060;28;20452;-81
2020/12/08 01:54:15;;;;;;;18.07;14.20;;;7.40;64.70;;;;;;5033304;28;20458;-81
2020/12/08 01:56:42;;;;;;;17.83;13.63;;;7.30;65.00;;;;;;5030551;28;20446;-82
2020/12/08 01:59:09;;;;;;;16.57;12.57;;;7.40;65.10;;;;;;5032316;28;20453;-82
2020/12/08 02:01:36;;;;;;;15.17;12.63;;;7.40;65.20;;;;;;5028161;28;20806;-82
2020/12/08 02:04:03;;;;;;;14.57;11.77;;;7.40;65.30;;;;;;5019764;28;20848;-80
2020/12/08 02:06:29;;;;;;;17.37;12.70;;;7.40;65.40;;;;;;5017350;28;20462;-82
2020/12/08 02:08:57;;;;;;;24.17;14.27;;;7.40;65.40;;;;;;5014551;28;20491;-81
2020/12/08 02:11:24;;;;;;;16.77;13.00;;;7.30;65.30;;;;;;5018792;28;20465;-82
2020/12/08 02:13:50;;;;;;;18.00;14.00;;;7.30;65.30;;;;;;5026959;28;20950;-82
2020/12/08 02:16:20;;;;;;;20.20;14.07;;;7.30;65.20;;;;;;5032438;28;20439;-83
2020/12/08 02:18:47;;;;;;;18.30;13.40;;;7.30;65.00;;;;;;5033215;28;20457;-80
2020/12/08 02:21:16;;;;;;;15.30;13.27;;;7.30;65.00;;;;;;5032907;28;20455;-80
2020/12/08 02:23:50;;;;;;;17.30;12.90;;;7.30;65.10;;;;;;5029601;28;20449;-81
2020/12/08 02:26:17;;;;;;;17.40;14.50;;;7.30;65.00;;;;;;5031107;28;20504;-81
2020/12/08 02:28:43;;;;;;;15.87;13.00;;;7.20;64.90;;;;;;5026133;28;20498;-81
2020/12/08 02:31:10;;;;;;;18.10;14.50;;;7.20;65.00;;;;;;5023202;28;20458;-81
2020/12/08 02:33:36;;;;;;;18.80;13.57;;;7.20;65.00;;;;;;5030304;28;20466;-81
2020/12/08 02:36:03;;;;;;;18.80;13.60;;;7.10;64.80;;;;;;5032306;28;20453;-80
2020/12/08 02:38:30;;;;;;;21.50;14.30;;;7.00;65.00;;;;;;5028450;28;20881;-80
2020/12/08 02:40:57;;;;;;;17.70;12.50;;;7.00;65.40;;;;;;5021983;28;20466;-80
2020/12/08 02:43:24;;;;;;;19.27;14.07;;;7.10;65.70;;;;;;5021896;28;20480;-80
2020/12/08 02:45:50;;;;;;;18.07;13.40;;;7.10;65.80;;;;;;5025789;28;20466;-81
2020/12/08 02:48:17;;;;;;;16.80;13.90;;;7.20;65.70;;;;;;5020226;28;20482;-80
2020/12/08 02:50:44;;;;;;;18.30;13.27;;;7.20;65.80;;;;;;5032432;28;20478;-81
2020/12/08 02:53:10;;;;;;;19.70;14.33;;;7.20;65.90;;;;;;5031919;28;20995;-81
2020/12/08 02:55:38;;;;;;;24.23;14.50;;;7.20;66.10;;;;;;5031954;28;20970;-80
2020/12/08 02:58:04;;;;;;;19.87;15.80;;;7.20;66.10;;;;;;5021455;28;20464;-80
2020/12/08 03:00:31;;;;;;;16.63;12.90;;;7.10;65.80;;;;;;5027142;28;20465;-81
2020/12/08 03:02:58;;;;;;;20.83;14.90;;;7.10;66.10;;;;;;5030993;28;20458;-80
2020/12/08 03:05:25;;;;;;;18.77;14.53;;;7.10;66.10;;;;;;5031741;28;20453;-83
2020/12/08 03:07:51;;;;;;;19.03;14.30;;;7.10;66.10;;;;;;5024455;28;20481;-83
2020/12/08 03:10:18;;;;;;;19.77;13.57;;;7.10;66.20;;;;;;5029136;28;20484;-83
2020/12/08 03:12:46;;;;;;;20.97;15.33;;;7.10;66.20;;;;;;5032429;28;20461;-84
2020/12/08 03:15:12;;;;;;;19.17;14.07;;;7.10;66.00;;;;;;5031995;28;20453;-83
2020/12/08 03:17:39;;;;;;;18.37;13.23;;;7.10;65.90;;;;;;5030364;28;20473;-83
2020/12/08 03:20:06;;;;;;;19.07;14.43;;;7.10;65.90;;;;;;5032795;28;20473;-83
2020/12/08 03:22:34;;;;;;;20.27;14.30;;;7.00;65.90;;;;;;5028444;28;20480;-83
2020/12/08 03:25:01;;;;;;;19.23;14.63;;;7.10;66.30;;;;;;5031255;28;20459;-83
2020/12/08 03:27:28;;;;;;;19.10;13.97;;;7.10;66.30;;;;;;5028073;28;20461;-83
2020/12/08 03:29:56;;;;;;;16.47;13.17;;;7.10;66.40;;;;;;5027442;28;20454;-84
2020/12/08 03:32:23;;;;;;;16.00;13.20;;;7.00;66.40;;;;;;5037569;28;20471;-82
2020/12/08 03:34:50;;;;;;;18.57;13.30;;;7.00;66.50;;;;;;5024220;28;20548;-83
2020/12/08 03:37:17;;;;;;;20.53;14.67;;;7.00;66.40;;;;;;5024288;28;20466;-84
2020/12/08 03:39:43;;;;;;;24.60;15.43;;;6.90;66.30;;;;;;5027571;28;20468;-84
2020/12/08 03:42:10;;;;;;;17.97;12.63;;;6.80;66.50;;;;;;5014154;28;20953;-83
2020/12/08 03:44:36;;;;;;;18.27;14.67;;;6.80;66.80;;;;;;5027859;28;20450;-81
2020/12/08 03:47:04;;;;;;;20.73;14.23;;;6.80;67.00;;;;;;5032689;28;20470;-81
2020/12/08 03:49:31;;;;;;;18.43;13.67;;;6.80;67.00;;;;;;5027485;28;20991;-81
2020/12/08 03:51:59;;;;;;;22.10;15.00;;;6.80;67.00;;;;;;5029030;28;21008;-81
2020/12/08 03:54:29;;;;;;;18.30;13.47;;;6.70;67.10;;;;;;5025931;28;20531;-82
2020/12/08 03:56:56;;;;;;;18.40;13.87;;;6.70;67.30;;;;;;5031522;28;20483;-82
2020/12/08 03:59:23;;;;;;;18.53;16.03;;;6.70;67.40;;;;;;5031199;28;20448;-82
2020/12/08 04:01:50;;;;;;;20.47;14.13;;;6.70;67.30;;;;;;5030826;28;20466;-82
2020/12/08 04:04:18;;;;;;;20.60;15.27;;;6.70;67.40;;;;;;5030650;28;20457;-82
2020/12/08 04:06:45;;;;;;;18.70;13.53;;;6.70;67.40;;;;;;5027062;28;20465;-81
2020/12/08 04:09:12;;;;;;;16.90;13.57;;;6.60;67.10;;;;;;5031210;28;20500;-82
2020/12/08 04:11:39;;;;;;;16.00;13.83;;;6.60;67.20;;;;;;5032020;28;20453;-81
2020/12/08 04:14:05;;;;;;;15.53;12.53;;;6.50;67.30;;;;;;5032213;28;20821;-81
2020/12/08 04:16:36;;;;;;;15.40;11.67;;;6.50;67.40;;;;;;5031667;28;20460;-84
2020/12/08 04:19:04;;;;;;;18.87;14.73;;;6.40;67.30;;;;;;5021841;28;20454;-82
2020/12/08 04:21:33;;;;;;;15.90;13.03;;;6.30;67.50;;;;;;5017674;28;20470;-81
2020/12/08 04:24:04;;;;;;;17.33;12.40;;;6.30;67.60;;;;;;5026984;28;20953;-83
2020/12/08 04:26:34;;;;;;;15.60;12.83;;;6.30;67.80;;;;;;5034377;28;20516;-83
2020/12/08 04:29:01;;;;;;;18.73;14.50;;;6.30;67.70;;;;;;5034656;28;20485;-83
2020/12/08 04:31:28;;;;;;;20.73;15.30;;;6.20;67.80;;;;;;5029166;28;20461;-82
2020/12/08 04:33:55;;;;;;;18.20;13.90;;;6.20;68.00;;;;;;5038327;28;20456;-83
2020/12/08 04:36:23;;;;;;;20.53;13.57;;;6.20;68.10;;;;;;5032439;28;20449;-82
2020/12/08 04:38:51;;;;;;;19.27;13.00;;;6.20;68.20;;;;;;5033275;28;20498;-81
2020/12/08 04:41:22;;;;;;;16.90;12.50;;;6.30;68.30;;;;;;5034435;28;20828;-82
2020/12/08 04:44:00;;;;;;;21.43;13.37;;;6.30;68.30;;;;;;5024627;28;20953;-82
2020/12/08 04:46:27;;;;;;;17.10;12.73;;;6.30;68.30;;;;;;5025893;28;20949;-83
2020/12/08 04:48:53;;;;;;;20.30;14.60;;;6.30;68.30;;;;;;5024639;28;20886;-83
2020/12/08 04:51:21;;;;;;;17.03;13.00;;;6.30;68.30;;;;;;5032834;28;20482;-79
2020/12/08 04:53:48;;;;;;;19.30;14.20;;;6.30;68.40;;;;;;5030553;28;20566;-81
2020/12/08 04:56:16;;;;;;;17.97;14.27;;;6.30;68.50;;;;;;5028304;28;20455;-82
2020/12/08 04:58:43;;;;;;;23.70;15.17;;;6.30;68.40;;;;;;5030170;28;20543;-81
2020/12/08 05:01:10;;;;;;;18.37;13.17;;;6.30;68.40;;;;;;5032820;28;20534;-78
2020/12/08 05:03:37;;;;;;;18.57;12.97;;;6.30;68.50;;;;;;5034441;28;20452;-80
2020/12/08 05:06:06;;;;;;;21.83;15.40;;;6.40;68.50;;;;;;5036929;28;20465;-80
2020/12/08 05:08:32;;;;;;;18.30;13.47;;;6.40;68.30;;;;;;5032993;28;20581;-78
2020/12/08 05:11:07;;;;;;;19.70;14.23;;;6.40;68.20;;;;;;5024289;28;20469;-80
2020/12/08 05:13:35;;;;;;;21.33;16.00;;;6.40;68.20;;;;;;5032214;28;20452;-80
2020/12/08 05:16:03;;;;;;;19.87;14.03;;;6.40;68.30;;;;;;5016095;28;20457;-80
2020/12/08 05:18:31;;;;;;;20.47;14.83;;;6.40;68.20;;;;;;5032830;28;20468;-79
2020/12/08 05:21:07;;;;;;;19.07;14.10;;;6.40;68.20;;;;;;5028482;28;20453;-80
2020/12/08 05:23:39;;;;;;;21.80;15.67;;;6.40;68.30;;;;;;5020123;28;20454;-80
2020/12/08 05:26:08;;;;;;;23.40;17.10;;;6.40;68.30;;;;;;5044051;28;20457;-81
2020/12/08 05:28:35;;;;;;;23.40;15.77;;;6.40;68.20;;;;;;5033873;28;20554;-80
2020/12/08 05:31:02;;;;;;;25.53;17.40;;;6.40;68.20;;;;;;5030526;28;20460;-79
2020/12/08 05:33:29;;;;;;;20.77;15.97;;;6.40;68.20;;;;;;5025695;28;20461;-79
2020/12/08 05:35:58;;;;;;;18.20;15.30;;;6.50;68.10;;;;;;5023716;28;20955;-79
2020/12/08 05:38:33;;;;;;;21.13;15.07;;;6.50;68.20;;;;;;5033041;28;21121;-77
2020/12/08 05:41:03;;;;;;;23.27;15.47;;;6.50;68.30;;;;;;5031688;28;20448;-79
2020/12/08 05:43:38;;;;;;;23.93;15.63;;;6.50;68.30;;;;;;5033034;28;20480;-80
2020/12/08 05:46:05;;;;;;;21.20;14.20;;;6.50;68.10;;;;;;5027812;28;20466;-80
2020/12/08 05:48:33;;;;;;;24.07;14.10;;;6.60;68.00;;;;;;5028916;28;20496;-80
2020/12/08 05:51:02;;;;;;;21.97;15.20;;;6.60;68.50;;;;;;5031045;28;20494;-79
2020/12/08 05:53:29;;;;;;;17.70;13.53;;;6.60;67.80;;;;;;5039346;28;20476;-80
2020/12/08 05:56:04;;;;;;;21.20;15.17;;;6.60;67.50;;;;;;5021030;28;20456;-80
2020/12/08 05:58:31;;;;;;;19.27;15.17;;;6.60;67.50;;;;;;5039077;28;20523;-80
2020/12/08 06:01:05;;;;;;;22.57;14.20;;;6.60;67.70;;;;;;5034579;28;20453;-80
2020/12/08 06:03:32;;;;;;;24.63;15.00;;;6.50;67.80;;;;;;5032844;28;20823;-81
2020/12/08 06:06:07;;;;;;;17.53;12.77;;;6.50;68.00;;;;;;5031317;28;21049;-80
2020/12/08 06:08:43;;;;;;;23.57;15.87;;;6.50;67.90;;;;;;5026751;28;20562;-81
2020/12/08 06:11:09;;;;;;;21.60;15.67;;;6.50;68.10;;;;;;5022509;28;20503;-79
2020/12/08 06:13:36;;;;;;;23.70;16.93;;;6.50;68.20;;;;;;5024592;28;20464;-81
2020/12/08 06:16:15;;;;;;;25.57;16.83;;;6.50;68.40;;;;;;5033118;28;20465;-79
2020/12/08 06:18:42;;;;;;;23.83;14.57;;;6.50;68.40;;;;;;5032853;28;20449;-79
2020/12/08 06:21:19;;;;;;;21.57;15.93;;;6.60;68.30;;;;;;5024929;28;20464;-77
2020/12/08 06:23:46;;;;;;;22.03;16.20;;;6.60;68.20;;;;;;5016820;28;20467;-78
2020/12/08 06:26:12;;;;;;;25.90;17.10;;;6.60;68.20;;;;;;5023275;28;20457;-78
2020/12/08 06:28:39;;;;;;;21.90;14.73;;;6.60;68.10;;;;;;5028280;28;20522;-80
2020/12/08 06:31:07;;;;;;;19.40;14.83;;;6.60;68.00;;;;;;5033091;28;20456;-81
2020/12/08 06:33:47;;;;;;;19.40;14.60;;;6.50;67.80;;;;;;5030743;28;20794;-79
2020/12/08 06:36:14;;;;;;;21.17;16.80;;;6.50;67.90;;;;;;5020124;28;20969;-76
2020/12/08 06:38:40;;;;;;;22.00;16.70;;;6.40;68.10;;;;;;5018614;28;20454;-76
2020/12/08 06:41:07;;;;;;;27.00;16.80;;;6.40;68.00;;;;;;5018702;28;20823;-78
2020/12/08 06:43:41;;;;;;;20.27;15.10;;;6.30;67.80;;;;;;5038139;28;20868;-78
2020/12/08 06:46:09;;;;;;;24.00;16.10;;;6.30;68.00;;;;;;5019296;28;20545;-79
2020/12/08 06:48:36;;;;;;;23.07;15.53;;;6.20;68.10;;;;;;5030697;28;20873;-78
2020/12/08 06:51:04;;;;;;;23.43;15.37;;;6.20;68.20;;;;;;5026846;28;20490;-79
2020/12/08 06:53:31;;;;;;;22.80;16.73;;;6.20;68.20;;;;;;5032317;28;20445;-78
2020/12/08 06:55:57;;;;;;;26.00;16.37;;;6.20;68.10;;;;;;5029607;28;21212;-77
2020/12/08 06:58:24;;;;;;;20.57;15.80;;;6.10;68.20;;;;;;5028650;28;20450;-76
2020/12/08 07:00:51;;;;;;;22.43;16.60;;;6.00;68.20;;;;;;5030554;28;20470;-77
2020/12/08 07:03:19;;;;;;;23.03;14.73;;;6.00;68.20;;;;;;5027944;28;20480;-76
2020/12/08 07:05:46;;;;;;;24.73;15.67;;;6.00;68.10;;;;;;5030404;28;20798;-78
2020/12/08 07:08:16;;;;;;;25.80;16.33;;;6.00;68.10;;;;;;5026224;28;20494;-75
2020/12/08 07:10:43;;;;;;;21.63;16.17;;;6.00;68.30;;;;;;5021297;28;20801;-78
2020/12/08 07:13:14;;;;;;;21.17;14.30;;;6.00;68.30;;;;;;5013428;28;20468;-78
2020/12/08 07:15:41;;;;;;;24.00;16.47;;;5.90;67.90;;;;;;5025081;28;20460;-78
2020/12/08 07:18:10;;;;;;;23.67;16.20;;;5.90;68.10;;;;;;5018858;28;20474;-77
2020/12/08 07:20:38;;;;;;;21.37;15.63;;;5.80;68.30;;;;;;5029682;28;20449;-77
2020/12/08 07:23:06;;;;;;;24.40;17.60;;;5.80;68.40;;;;;;5028019;28;20449;-77
2020/12/08 07:25:34;;;;;;;25.07;18.30;;;5.80;68.60;;;;;;5018588;28;20462;-78
2020/12/08 07:28:01;;;;;;;26.87;19.13;;;5.80;68.80;;;;;;5021231;28;20466;-77
2020/12/08 07:30:30;;;;;;;23.87;16.80;;;5.80;69.20;;;;;;5021572;28;20459;-77
2020/12/08 07:33:08;;;;;;;25.13;18.70;;;5.80;68.70;;;;;;5031188;28;20444;-78
2020/12/08 07:35:36;;;;;;;24.23;16.67;;;5.80;68.80;;;;;;5031803;28;21094;-77
2020/12/08 07:38:03;;;;;;;27.63;19.30;;;5.80;68.80;;;;;;5030467;28;20479;-77
2020/12/08 07:40:31;;;;;;;24.53;17.03;;;5.80;68.80;;;;;;5025215;28;20832;-77
2020/12/08 07:42:59;;;;;;;21.83;17.60;;;5.80;68.80;;;;;;5025943;28;20465;-77
2020/12/08 07:45:27;;;;;;;26.27;18.00;;;5.80;68.80;;;;;;5032318;28;20866;-77
2020/12/08 07:47:55;;;;;;;24.30;17.80;;;5.80;68.90;;;;;;5031854;28;20797;-77
2020/12/08 07:50:26;;;;;;;25.27;18.77;;;5.80;68.90;;;;;;5029992;28;20473;-77
2020/12/08 07:53:00;;;;;;;31.37;19.77;;;5.80;68.90;;;;;;5020145;28;20454;-77
2020/12/08 07:55:27;;;;;;;29.67;18.80;;;5.90;69.00;;;;;;5031086;28;20452;-77
2020/12/08 07:57:54;;;;;;;26.63;18.10;;;5.90;68.90;;;;;;5033625;28;20985;-77
2020/12/08 08:00:22;;;;;;;24.93;17.70;;;5.90;68.80;;;;;;5036228;28;20443;-77
2020/12/08 08:02:48;;;;;;;25.83;18.27;;;6.00;68.60;;;;;;5025491;28;20451;-76
2020/12/08 08:05:15;;;;;;;28.70;19.13;;;6.00;68.30;;;;;;5027852;28;20449;-76
2020/12/08 08:07:42;;;;;;;29.00;18.40;;;6.10;68.20;;;;;;5028192;28;20460;-79
2020/12/08 08:10:08;;;;;;;23.57;16.67;;;6.00;68.20;;;;;;5022799;28;20497;-77
2020/12/08 08:12:35;;;;;;;28.93;18.43;;;6.10;68.40;;;;;;5022604;28;20458;-77
2020/12/08 08:15:01;;;;;;;31.27;17.77;;;6.00;68.30;;;;;;5026455;28;20484;-77
2020/12/08 08:17:29;;;;;;;22.27;17.77;;;6.00;68.30;;;;;;5026209;28;20453;-78
2020/12/08 08:19:55;;;;;;;25.20;17.33;;;6.00;68.30;;;;;;5035250;28;20460;-77
2020/12/08 08:22:22;;;;;;;23.10;17.10;;;5.90;68.60;;;;;;5033570;28;20452;-77
2020/12/08 08:24:49;;;;;;;24.40;18.00;;;6.00;68.90;;;;;;5046832;28;20457;-78
2020/12/08 08:27:15;;;;;;;42.00;18.40;;;6.10;69.00;;;;;;5028077;28;20448;-78
2020/12/08 08:29:42;;;;;;;24.67;17.50;;;6.30;68.80;;;;;;5033743;28;20500;-77
2020/12/08 08:32:08;;;;;;;24.30;16.20;;;6.30;68.60;;;;;;5038817;28;20468;-76
2020/12/08 08:34:36;;;;;;;24.70;18.10;;;6.40;68.50;;;;;;5034787;28;20449;-77
2020/12/08 08:37:02;;;;;;;25.43;17.93;;;6.50;68.40;;;;;;5033393;28;20472;-77
2020/12/08 08:39:29;;;;;;;26.33;18.00;;;6.50;68.30;;;;;;5034915;28;20464;-77
2020/12/08 08:41:56;;;;;;;25.43;19.07;;;6.50;68.10;;;;;;5034896;28;20513;-77
2020/12/08 08:44:22;;;;;;;28.57;17.90;;;6.50;68.10;;;;;;5051523;28;20459;-78
2020/12/08 08:46:49;;;;;;;25.23;18.87;;;6.60;68.30;;;;;;5034904;28;20510;-77
2020/12/08 08:49:16;;;;;;;30.13;20.20;;;6.60;68.20;;;;;;5032784;28;20488;-77
2020/12/08 08:51:44;;;;;;;28.40;20.00;;;6.70;67.90;;;;;;5034044;28;20468;-77
2020/12/08 08:54:11;;;;;;;32.67;18.60;;;6.70;67.80;;;;;;5034362;28;20464;-77
2020/12/08 08:56:38;;;;;;;26.00;18.23;;;6.70;67.60;;;;;;5035937;28;20449;-77
2020/12/08 08:59:04;;;;;;;32.80;19.47;;;6.80;67.50;;;;;;5022921;28;20528;-77
2020/12/08 09:01:32;;;;;;;36.73;21.37;;;6.90;67.40;;;;;;5022366;28;20968;-77
2020/12/08 09:03:59;;;;;;;24.43;18.47;;;7.00;67.50;;;;;;5022438;28;20443;-77
2020/12/08 09:06:25;;;;;;;28.50;18.77;;;7.00;66.90;;;;;;5040332;28;20459;-76
2020/12/08 09:08:53;;;;;;;29.23;20.77;;;7.10;66.30;;;;;;5042523;28;20563;-77
2020/12/08 09:11:19;;;;;;;35.90;19.73;;;7.10;66.20;;;;;;5036164;28;20465;-77
2020/12/08 09:13:47;;;;;;;23.20;18.00;;;7.20;65.80;;;;;;5032729;28;20451;-76
2020/12/08 09:16:14;;;;;;;27.40;19.40;;;7.30;65.80;;;;;;5031566;28;20439;-77
2020/12/08 09:18:40;;;;;;;26.23;19.00;;;7.40;65.70;;;;;;5033578;28;20465;-77
2020/12/08 09:21:07;;;;;;;29.73;20.13;;;7.40;65.40;;;;;;5045688;28;20452;-77
2020/12/08 09:23:33;;;;;;;41.37;23.77;;;7.50;65.20;;;;;;5036549;28;20469;-77
2020/12/08 09:26:02;;;;;;;25.47;19.10;;;7.60;64.60;;;;;;5044616;28;20460;-76
2020/12/08 09:28:28;;;;;;;24.53;17.47;;;7.70;64.60;;;;;;5023378;28;20499;-76
2020/12/08 09:30:55;;;;;;;27.70;18.70;;;7.70;64.10;;;;;;5024269;28;20454;-77
2020/12/08 09:33:21;;;;;;;24.23;18.17;;;7.70;63.60;;;;;;5022589;28;20455;-77
2020/12/08 09:35:48;;;;;;;27.60;19.50;;;7.80;63.60;;;;;;5026633;28;20452;-77
2020/12/08 09:38:14;;;;;;;22.90;17.27;;;7.80;63.50;;;;;;5019432;28;20455;-77
2020/12/08 09:40:42;;;;;;;22.87;18.60;;;7.90;63.40;;;;;;5017405;28;20459;-77
2020/12/08 09:43:10;;;;;;;26.10;18.83;;;7.90;62.80;;;;;;5013798;28;20458;-77
2020/12/08 09:45:38;;;;;;;31.20;23.30;;;8.00;63.00;;;;;;5021829;28;20472;-77
2020/12/08 09:48:05;;;;;;;27.40;19.77;;;8.00;62.80;;;;;;5028594;28;20554;-77
2020/12/08 09:50:32;;;;;;;27.00;21.60;;;8.10;62.70;;;;;;5033780;28;20981;-77
2020/12/08 09:52:58;;;;;;;25.40;19.33;;;8.10;62.30;;;;;;5034190;28;20456;-78
2020/12/08 09:55:25;;;;;;;30.37;22.57;;;8.20;62.10;;;;;;5027211;28;20977;-78
2020/12/08 09:57:51;;;;;;;28.97;20.13;;;8.10;61.90;;;;;;5051584;28;20448;-77
2020/12/08 10:00:19;;;;;;;29.70;20.93;;;8.20;62.20;;;;;;5051781;28;20459;-77
2020/12/08 10:02:45;;;;;;;27.43;20.83;;;8.20;61.60;;;;;;5053817;28;20827;-77
2020/12/08 10:05:12;;;;;;;24.67;18.50;;;8.20;61.90;;;;;;5032604;28;20955;-77
2020/12/08 10:07:39;;;;;;;27.30;21.00;;;8.30;62.10;;;;;;5024132;28;20818;-77
2020/12/08 10:10:06;;;;;;;29.10;19.80;;;8.40;62.30;;;;;;5016422;28;20487;-76
2020/12/08 10:12:32;;;;;;;25.43;18.23;;;8.50;62.20;;;;;;5034001;28;20444;-78
2020/12/08 10:15:00;;;;;;;26.10;18.53;;;8.50;61.60;;;;;;5032664;28;20804;-77
2020/12/08 10:17:27;;;;;;;25.27;19.00;;;8.60;61.10;;;;;;5023012;28;20503;-78
2020/12/08 10:19:54;;;;;;;27.10;20.10;;;8.80;61.30;;;;;;5019015;28;20466;-77
2020/12/08 10:22:20;;;;;;;26.47;18.77;;;9.00;61.30;;;;;;5032216;28;20459;-76
2020/12/08 10:24:47;;;;;;;24.43;18.57;;;9.30;60.40;;;;;;5032460;28;20461;-76
2020/12/08 10:27:13;;;;;;;25.17;19.53;;;9.50;59.60;;;;;;5028889;28;20456;-76
2020/12/08 10:29:40;;;;;;;25.00;17.93;;;9.90;60.00;;;;;;5032995;28;20489;-77
2020/12/08 10:32:07;;;;;;;22.90;18.80;;;10.20;57.30;;;;;;5033242;28;20446;-79
2020/12/08 10:34:34;;;;;;;19.77;16.50;;;10.50;56.80;;;;;;5033023;28;20464;-78
2020/12/08 10:37:00;;;;;;;24.03;19.63;;;11.00;56.50;;;;;;5024377;28;20449;-77
2020/12/08 10:39:27;;;;;;;30.37;20.77;;;11.60;55.40;;;;;;5020827;28;21012;-76
2020/12/08 10:41:55;;;;;;;19.93;16.60;;;12.10;53.60;;;;;;5024039;28;20454;-76
2020/12/08 10:44:22;;;;;;;20.43;17.30;;;12.60;52.20;;;;;;5028497;28;20553;-77
2020/12/08 10:46:50;;;;;;;18.60;16.50;;;13.00;50.50;;;;;;5032883;28;20456;-78
2020/12/08 10:49:16;;;;;;;22.00;16.47;;;13.40;49.40;;;;;;5020407;28;20570;-76
2020/12/08 10:51:44;;;;;;;22.17;18.60;;;13.60;48.00;;;;;;5032536;28;20455;-76
2020/12/08 10:54:10;;;;;;;21.27;18.70;;;14.00;47.70;;;;;;5032573;28;20453;-76
2020/12/08 10:56:37;;;;;;;22.83;19.50;;;14.40;47.30;;;;;;5032708;28;20449;-76
2020/12/08 10:59:03;;;;;;;21.37;19.10;;;14.90;45.60;;;;;;5024954;28;20490;-77
2020/12/08 11:01:30;;;;;;;18.73;16.73;;;15.30;45.20;;;;;;5020001;28;20993;-76
2020/12/08 11:03:57;;;;;;;20.50;17.73;;;15.80;43.40;;;;;;5021278;28;20462;-76
2020/12/08 11:06:25;;;;;;;25.20;20.00;;;16.30;42.60;;;;;;5026492;28;20446;-77
2020/12/08 11:08:54;;;;;;;26.77;19.60;;;16.80;42.20;;;;;;5024320;28;20481;-77
2020/12/08 11:11:22;;;;;;;22.10;19.63;;;17.20;41.10;;;;;;5025967;28;20881;-78
2020/12/08 11:13:48;;;;;;;24.30;19.33;;;17.60;40.30;;;;;;5032173;28;20437;-76
2020/12/08 11:16:15;;;;;;;21.67;18.57;;;18.10;39.20;;;;;;5032327;28;20445;-76
2020/12/08 11:18:41;;;;;;;22.87;19.40;;;18.30;37.90;;;;;;5026040;28;20456;-76
2020/12/08 11:21:08;;;;;;;23.23;19.07;;;18.50;38.10;;;;;;5009351;28;20459;-76
2020/12/08 11:23:35;;;;;;;22.57;19.30;;;19.10;37.70;;;;;;5022957;28;20446;-78
2020/12/08 11:26:03;;;;;;;21.80;19.47;;;19.50;36.60;;;;;;5018637;28;20482;-76
2020/12/08 11:28:29;;;;;;;22.67;19.73;;;19.40;35.50;;;;;;5020471;28;20461;-76
2020/12/08 11:30:56;;;;;;;24.10;19.40;;;19.20;35.30;;;;;;5032793;28;20814;-76
2020/12/08 11:33:22;;;;;;;23.17;19.50;;;18.50;35.70;;;;;;5036141;28;20519;-76
2020/12/08 11:35:50;;;;;;;22.53;19.20;;;17.40;37.10;;;;;;5034417;28;20507;-76
2020/12/08 11:38:17;;;;;;;25.50;19.83;;;16.00;37.90;;;;;;5036210;28;20532;-77
2020/12/08 11:40:43;;;;;;;26.17;21.40;;;14.70;40.00;;;;;;5036231;28;20495;-78
2020/12/08 11:43:11;;;;;;;22.13;18.93;;;13.70;42.00;;;;;;5036353;28;20457;-77
2020/12/08 11:45:37;;;;;;;23.30;19.33;;;13.00;43.80;;;;;;5028745;28;20864;-77
2020/12/08 11:48:04;;;;;;;25.93;19.70;;;12.40;44.90;;;;;;5027159;28;20587;-77
2020/12/08 11:50:30;;;;;;;21.50;17.70;;;11.90;46.10;;;;;;5031873;28;20496;-77
2020/12/08 11:52:57;;;;;;;20.77;17.10;;;11.60;47.00;;;;;;5036223;28;20925;-78
2020/12/08 11:55:24;;;;;;;25.13;18.83;;;11.30;47.90;;;;;;5029401;28;20982;-77
2020/12/08 11:57:50;;;;;;;28.73;20.40;;;11.10;48.60;;;;;;5028546;28;20819;-77
2020/12/08 12:00:18;;;;;;;31.90;20.53;;;11.00;49.30;;;;;;5024160;28;20449;-78
2020/12/08 12:02:45;;;;;;;22.63;18.33;;;10.90;49.70;;;;;;5027497;28;20898;-77
2020/12/08 12:05:11;;;;;;;26.80;19.07;;;10.80;50.10;;;;;;5022590;28;20458;-78
2020/12/08 12:07:38;;;;;;;26.73;19.23;;;10.90;50.30;;;;;;5026106;28;20832;-78
2020/12/08 12:10:05;;;;;;;25.10;18.67;;;11.10;50.30;;;;;;5035520;28;20530;-77
2020/12/08 12:12:32;;;;;;;26.03;18.20;;;11.20;50.00;;;;;;5033160;28;20464;-77
2020/12/08 12:14:58;;;;;;;22.50;17.33;;;11.10;50.00;;;;;;5021499;28;20465;-77
2020/12/08 12:17:26;;;;;;;25.07;18.70;;;11.00;50.20;;;;;;5024958;28;20447;-77
2020/12/08 12:19:52;;;;;;;21.30;17.60;;;10.90;50.20;;;;;;5028583;28;20459;-76
2020/12/08 12:22:19;;;;;;;23.70;17.50;;;10.80;50.50;;;;;;5034041;28;20449;-79
2020/12/08 12:24:47;;;;;;;21.00;16.87;;;10.70;50.70;;;;;;5035092;28;20452;-77
2020/12/08 12:27:13;;;;;;;19.50;15.43;;;10.60;50.90;;;;;;5035188;28;20449;-77
2020/12/08 12:29:40;;;;;;;21.97;16.20;;;10.50;51.30;;;;;;5032649;28;20488;-77
2020/12/08 12:32:06;;;;;;;23.17;16.50;;;10.30;51.40;;;;;;5022269;28;20459;-77
2020/12/08 12:34:34;;;;;;;19.73;16.10;;;10.20;51.50;;;;;;5035382;28;20462;-77
2020/12/08 12:37:00;;;;;;;22.77;16.40;;;10.20;51.60;;;;;;5034854;28;20817;-77